sensor_id;sensor_type;location;lat;lon;timestamp;temperature;humidity
3256;DHT22;1640;48.504;9.224;2024-02-21T00:01:29;5.40;99.90
3256;DHT22;1640;48.504;9.224;2024-02-21T00:03:58;5.40;99.90
3256;DHT22;1640;48.504;9.224;2024-02-21T00:06:25;5.40;99.90
3256;DHT22;1640;48.504;9.224;2024-02-21T00:08:53;5.40;99.90
3256;DHT22;1640;48.504;9.224;2024-02-21T00:11:20;5.40;99.90
3256;DHT22;1640;48.504;9.224;2024-02-21T00:13:48;5.40;99.90
3256;DHT22;1640;48.504;9.224;2024-02-21T00:16:16;5.40;99.90
3256;DHT22;1640;48.504;9.224;2024-02-21T00:18:43;5.40;99.90
3256;DHT22;1640;48.504;9.224;2024-02-21T00:21:12;5.40;99.90
3256;DHT22;1640;48.504;9.224;2024-02-21T00:23:43;5.50;99.90
3256;DHT22;1640;48.504;9.224;2024-02-21T00:26:11;5.50;99.90
3256;DHT22;1640;48.504;9.224;2024-02-21T00:28:39;5.50;99.90
3256;DHT22;1640;48.504;9.224;2024-02-21T00:31:06;5.50;99.90
3256;DHT22;1640;48.504;9.224;2024-02-21T00:33:34;5.50;99.90
3256;DHT22;1640;48.504;9.224;2024-02-21T00:36:01;5.60;99.90
3256;DHT22;1640;48.504;9.224;2024-02-21T00:38:31;5.60;99.90
3256;DHT22;1640;48.504;9.224;2024-02-21T00:40:59;5.60;99.90
3256;DHT22;1640;48.504;9.224;2024-02-21T00:43:26;5.60;99.90
3256;DHT22;1640;48.504;9.224;2024-02-21T00:45:54;5.60;99.90
3256;DHT22;1640;48.504;9.224;2024-02-21T00:48:22;5.70;99.90
3256;DHT22;1640;48.504;9.224;2024-02-21T00:50:49;5.70;99.90
3256;DHT22;1640;48.504;9.224;2024-02-21T00:53:16;5.70;99.90
3256;DHT22;1640;48.504;9.224;2024-02-21T00:55:45;5.60;99.90
3256;DHT22;1640;48.504;9.224;2024-02-21T00:58:12;5.60;99.90
3256;DHT22;1640;48.504;9.224;2024-02-21T01:00:40;5.60;99.90
3256;DHT22;1640;48.504;9.224;2024-02-21T01:03:07;5.50;99.90
3256;DHT22;1640;48.504;9.224;2024-02-21T01:05:35;5.50;99.90
3256;DHT22;1640;48.504;9.224;2024-02-21T01:08:02;5.50;99.90
3256;DHT22;1640;48.504;9.224;2024-02-21T01:10:30;5.50;99.90
3256;DHT22;1640;48.504;9.224;2024-02-21T01:12:59;5.50;99.90
3256;DHT22;1640;48.504;9.224;2024-02-21T01:15:27;5.50;99.90
3256;DHT22;1640;48.504;9.224;2024-02-21T01:17:54;5.50;99.90
3256;DHT22;1640;48.504;9.224;2024-02-21T01:20:21;5.60;99.90
3256;DHT22;1640;48.504;9.224;2024-02-21T01:22:49;5.60;99.90
3256;DHT22;1640;48.504;9.224;2024-02-21T01:25:16;5.60;99.90
3256;DHT22;1640;48.504;9.224;2024-02-21T01:27:44;5.60;99.90
3256;DHT22;1640;48.504;9.224;2024-02-21T01:30:13;5.60;99.90
3256;DHT22;1640;48.504;9.224;2024-02-21T01:32:40;5.70;99.90
3256;DHT22;1640;48.504;9.224;2024-02-21T01:35:08;5.60;99.90
3256;DHT22;1640;48.504;9.224;2024-02-21T01:37:35;5.60;99.90
3256;DHT22;1640;48.504;9.224;2024-02-21T01:40:04;5.60;99.90
3256;DHT22;1640;48.504;9.224;2024-02-21T01:42:31;5.40;99.90
3256;DHT22;1640;48.504;9.224;2024-02-21T01:44:59;5.30;99.90
3256;DHT22;1640;48.504;9.224;2024-02-21T01:47:27;5.40;99.90
3256;DHT22;1640;48.504;9.224;2024-02-21T01:49:55;5.40;99.90
3256;DHT22;1640;48.504;9.224;2024-02-21T01:52:23;5.50;99.90
3256;DHT22;1640;48.504;9.224;2024-02-21T01:54:50;5.50;99.90
3256;DHT22;1640;48.504;9.224;2024-02-21T01:57:18;5.60;99.90
3256;DHT22;1640;48.504;9.224;2024-02-21T01:59:46;5.70;99.90
3256;DHT22;1640;48.504;9.224;2024-02-21T02:02:13;5.70;99.90
3256;DHT22;1640;48.504;9.224;2024-02-21T02:04:44;5.60;99.90
3256;DHT22;1640;48.504;9.224;2024-02-21T02:07:11;5.70;99.90
3256;DHT22;1640;48.504;9.224;2024-02-21T02:09:39;5.70;99.90
3256;DHT22;1640;48.504;9.224;2024-02-21T02:12:07;5.80;99.90
3256;DHT22;1640;48.504;9.224;2024-02-21T02:14:34;5.90;99.90
3256;DHT22;1640;48.504;9.224;2024-02-21T02:17:02;6.00;99.90
3256;DHT22;1640;48.504;9.224;2024-02-21T02:19:29;6.00;99.90
3256;DHT22;1640;48.504;9.224;2024-02-21T02:22:01;6.10;99.90
3256;DHT22;1640;48.504;9.224;2024-02-21T02:24:33;6.20;99.90
3256;DHT22;1640;48.504;9.224;2024-02-21T02:27:01;6.20;99.90
3256;DHT22;1640;48.504;9.224;2024-02-21T02:29:28;6.30;99.90
3256;DHT22;1640;48.504;9.224;2024-02-21T02:31:55;6.20;0.50
3256;DHT22;1640;48.504;9.224;2024-02-21T02:34:23;6.20;99.90
3256;DHT22;1640;48.504;9.224;2024-02-21T02:36:50;6.20;99.90
3256;DHT22;1640;48.504;9.224;2024-02-21T02:39:18;6.20;99.90
3256;DHT22;1640;48.504;9.224;2024-02-21T02:41:46;6.20;99.90
3256;DHT22;1640;48.504;9.224;2024-02-21T02:44:14;6.20;0.60
3256;DHT22;1640;48.504;9.224;2024-02-21T02:46:42;6.10;3.10
3256;DHT22;1640;48.504;9.224;2024-02-21T02:49:09;6.20;1.60
3256;DHT22;1640;48.504;9.224;2024-02-21T02:51:40;6.20;4.70
3256;DHT22;1640;48.504;9.224;2024-02-21T02:54:08;6.20;3.10
3256;DHT22;1640;48.504;9.224;2024-02-21T02:56:35;6.20;3.40
3256;DHT22;1640;48.504;9.224;2024-02-21T02:59:04;6.20;2.80
3256;DHT22;1640;48.504;9.224;2024-02-21T03:01:34;6.20;2.10
3256;DHT22;1640;48.504;9.224;2024-02-21T03:04:02;6.20;3.80
3256;DHT22;1640;48.504;9.224;2024-02-21T03:06:29;6.20;3.60
3256;DHT22;1640;48.504;9.224;2024-02-21T03:08:57;6.30;5.20
3256;DHT22;1640;48.504;9.224;2024-02-21T03:11:26;6.30;7.70
3256;DHT22;1640;48.504;9.224;2024-02-21T03:13:55;6.20;8.30
3256;DHT22;1640;48.504;9.224;2024-02-21T03:16:25;6.20;7.60
3256;DHT22;1640;48.504;9.224;2024-02-21T03:18:52;6.20;8.50
3256;DHT22;1640;48.504;9.224;2024-02-21T03:21:20;6.30;10.30
3256;DHT22;1640;48.504;9.224;2024-02-21T03:23:47;6.30;9.90
3256;DHT22;1640;48.504;9.224;2024-02-21T03:26:14;6.40;10.30
3256;DHT22;1640;48.504;9.224;2024-02-21T03:28:43;6.40;11.20
3256;DHT22;1640;48.504;9.224;2024-02-21T03:31:12;6.40;14.00
3256;DHT22;1640;48.504;9.224;2024-02-21T03:33:42;6.30;13.40
3256;DHT22;1640;48.504;9.224;2024-02-21T03:36:13;6.40;11.60
3256;DHT22;1640;48.504;9.224;2024-02-21T03:38:41;6.50;15.00
3256;DHT22;1640;48.504;9.224;2024-02-21T03:41:09;6.50;17.60
3256;DHT22;1640;48.504;9.224;2024-02-21T03:43:37;6.50;21.50
3256;DHT22;1640;48.504;9.224;2024-02-21T03:46:05;6.50;20.50
3256;DHT22;1640;48.504;9.224;2024-02-21T03:48:33;6.50;24.00
3256;DHT22;1640;48.504;9.224;2024-02-21T03:51:02;6.50;23.30
3256;DHT22;1640;48.504;9.224;2024-02-21T03:53:31;6.50;25.50
3256;DHT22;1640;48.504;9.224;2024-02-21T03:56:01;6.50;25.80
3256;DHT22;1640;48.504;9.224;2024-02-21T03:58:30;6.40;23.50
3256;DHT22;1640;48.504;9.224;2024-02-21T04:00:59;6.40;24.90
3256;DHT22;1640;48.504;9.224;2024-02-21T04:03:27;6.50;27.80
3256;DHT22;1640;48.504;9.224;2024-02-21T04:05:55;6.50;26.70
3256;DHT22;1640;48.504;9.224;2024-02-21T04:08:24;6.50;29.00
3256;DHT22;1640;48.504;9.224;2024-02-21T04:10:51;6.50;29.10
3256;DHT22;1640;48.504;9.224;2024-02-21T04:13:19;6.40;28.80
3256;DHT22;1640;48.504;9.224;2024-02-21T04:15:46;6.40;25.20
3256;DHT22;1640;48.504;9.224;2024-02-21T04:18:13;6.40;26.40
3256;DHT22;1640;48.504;9.224;2024-02-21T04:20:41;6.40;25.60
3256;DHT22;1640;48.504;9.224;2024-02-21T04:23:09;6.30;22.70
3256;DHT22;1640;48.504;9.224;2024-02-21T04:25:38;6.30;20.40
3256;DHT22;1640;48.504;9.224;2024-02-21T04:28:05;6.20;17.40
3256;DHT22;1640;48.504;9.224;2024-02-21T04:30:33;6.20;14.00
3256;DHT22;1640;48.504;9.224;2024-02-21T04:33:00;6.20;13.10
3256;DHT22;1640;48.504;9.224;2024-02-21T04:35:28;6.10;11.10
3256;DHT22;1640;48.504;9.224;2024-02-21T04:37:55;6.00;6.30
3256;DHT22;1640;48.504;9.224;2024-02-21T04:40:22;5.80;99.90
3256;DHT22;1640;48.504;9.224;2024-02-21T04:42:51;5.70;99.90
3256;DHT22;1640;48.504;9.224;2024-02-21T04:45:18;5.70;99.90
3256;DHT22;1640;48.504;9.224;2024-02-21T04:47:46;5.60;99.90
3256;DHT22;1640;48.504;9.224;2024-02-21T04:50:13;5.60;99.90
3256;DHT22;1640;48.504;9.224;2024-02-21T04:52:42;5.60;99.90
3256;DHT22;1640;48.504;9.224;2024-02-21T04:55:10;5.40;99.90
3256;DHT22;1640;48.504;9.224;2024-02-21T04:57:37;5.40;99.90
3256;DHT22;1640;48.504;9.224;2024-02-21T05:00:07;5.30;99.90
3256;DHT22;1640;48.504;9.224;2024-02-21T05:02:35;5.30;99.90
3256;DHT22;1640;48.504;9.224;2024-02-21T05:05:03;5.30;99.90
3256;DHT22;1640;48.504;9.224;2024-02-21T05:07:31;5.20;99.90
3256;DHT22;1640;48.504;9.224;2024-02-21T05:09:59;5.10;99.90
3256;DHT22;1640;48.504;9.224;2024-02-21T05:12:26;5.00;99.90
3256;DHT22;1640;48.504;9.224;2024-02-21T05:14:53;4.90;99.90
3256;DHT22;1640;48.504;9.224;2024-02-21T05:17:22;4.90;99.90
3256;DHT22;1640;48.504;9.224;2024-02-21T05:19:50;4.80;99.90
3256;DHT22;1640;48.504;9.224;2024-02-21T05:22:17;4.70;99.90
3256;DHT22;1640;48.504;9.224;2024-02-21T05:24:44;4.60;99.90
3256;DHT22;1640;48.504;9.224;2024-02-21T05:27:12;4.50;99.90
3256;DHT22;1640;48.504;9.224;2024-02-21T05:29:39;4.50;99.90
3256;DHT22;1640;48.504;9.224;2024-02-21T05:32:07;4.40;99.90
3256;DHT22;1640;48.504;9.224;2024-02-21T05:34:36;4.40;99.90
3256;DHT22;1640;48.504;9.224;2024-02-21T05:37:03;4.30;99.90
3256;DHT22;1640;48.504;9.224;2024-02-21T05:39:31;4.30;99.90
3256;DHT22;1640;48.504;9.224;2024-02-21T05:41:58;4.20;99.90
3256;DHT22;1640;48.504;9.224;2024-02-21T05:44:26;4.10;99.90
3256;DHT22;1640;48.504;9.224;2024-02-21T05:46:53;4.10;99.90
3256;DHT22;1640;48.504;9.224;2024-02-21T05:49:21;4.00;99.90
3256;DHT22;1640;48.504;9.224;2024-02-21T05:51:49;4.10;99.90
3256;DHT22;1640;48.504;9.224;2024-02-21T05:54:17;4.10;99.90
3256;DHT22;1640;48.504;9.224;2024-02-21T05:56:45;4.10;99.90
3256;DHT22;1640;48.504;9.224;2024-02-21T05:59:13;4.00;99.90
3256;DHT22;1640;48.504;9.224;2024-02-21T06:01:40;3.90;99.90
3256;DHT22;1640;48.504;9.224;2024-02-21T06:04:08;3.90;99.90
3256;DHT22;1640;48.504;9.224;2024-02-21T06:06:35;3.80;99.90
3256;DHT22;1640;48.504;9.224;2024-02-21T06:09:04;3.70;99.90
3256;DHT22;1640;48.504;9.224;2024-02-21T06:11:32;3.80;99.90
3256;DHT22;1640;48.504;9.224;2024-02-21T06:14:01;3.80;99.90
3256;DHT22;1640;48.504;9.224;2024-02-21T06:16:28;3.70;99.90
3256;DHT22;1640;48.504;9.224;2024-02-21T06:18:55;3.70;99.90
3256;DHT22;1640;48.504;9.224;2024-02-21T06:21:23;3.80;99.90
3256;DHT22;1640;48.504;9.224;2024-02-21T06:23:50;3.80;99.90
3256;DHT22;1640;48.504;9.224;2024-02-21T06:26:19;3.80;99.90
3256;DHT22;1640;48.504;9.224;2024-02-21T06:28:46;3.80;99.90
3256;DHT22;1640;48.504;9.224;2024-02-21T06:31:14;3.90;99.90
3256;DHT22;1640;48.504;9.224;2024-02-21T06:33:42;3.90;99.90
3256;DHT22;1640;48.504;9.224;2024-02-21T06:36:09;3.80;99.90
3256;DHT22;1640;48.504;9.224;2024-02-21T06:38:37;3.80;99.90
3256;DHT22;1640;48.504;9.224;2024-02-21T06:41:04;3.80;99.90
3256;DHT22;1640;48.504;9.224;2024-02-21T06:43:33;3.80;99.90
3256;DHT22;1640;48.504;9.224;2024-02-21T06:46:00;3.90;99.90
3256;DHT22;1640;48.504;9.224;2024-02-21T06:48:28;3.90;99.90
3256;DHT22;1640;48.504;9.224;2024-02-21T06:50:55;3.90;99.90
3256;DHT22;1640;48.504;9.224;2024-02-21T06:53:22;4.00;99.90
3256;DHT22;1640;48.504;9.224;2024-02-21T06:55:50;4.00;99.90
3256;DHT22;1640;48.504;9.224;2024-02-21T06:58:17;4.00;99.90
3256;DHT22;1640;48.504;9.224;2024-02-21T07:00:46;4.10;99.90
3256;DHT22;1640;48.504;9.224;2024-02-21T07:03:13;4.10;99.90
3256;DHT22;1640;48.504;9.224;2024-02-21T07:05:41;4.20;99.90
3256;DHT22;1640;48.504;9.224;2024-02-21T07:08:08;4.30;99.90
3256;DHT22;1640;48.504;9.224;2024-02-21T07:10:36;4.30;99.90
3256;DHT22;1640;48.504;9.224;2024-02-21T07:13:03;4.30;99.90
3256;DHT22;1640;48.504;9.224;2024-02-21T07:15:30;4.40;99.90
3256;DHT22;1640;48.504;9.224;2024-02-21T07:18:00;4.50;99.90
3256;DHT22;1640;48.504;9.224;2024-02-21T07:20:27;4.50;99.90
3256;DHT22;1640;48.504;9.224;2024-02-21T07:22:55;4.60;99.90
3256;DHT22;1640;48.504;9.224;2024-02-21T07:25:22;4.70;99.90
3256;DHT22;1640;48.504;9.224;2024-02-21T07:27:50;4.80;99.90
3256;DHT22;1640;48.504;9.224;2024-02-21T07:30:17;4.90;99.90
3256;DHT22;1640;48.504;9.224;2024-02-21T07:32:45;4.90;99.90
3256;DHT22;1640;48.504;9.224;2024-02-21T07:35:14;5.00;99.90
3256;DHT22;1640;48.504;9.224;2024-02-21T07:37:41;5.00;99.90
3256;DHT22;1640;48.504;9.224;2024-02-21T07:40:12;5.10;99.90
3256;DHT22;1640;48.504;9.224;2024-02-21T07:42:40;5.20;99.90
3256;DHT22;1640;48.504;9.224;2024-02-21T07:45:08;5.40;99.90
3256;DHT22;1640;48.504;9.224;2024-02-21T07:47:36;5.60;99.90
3256;DHT22;1640;48.504;9.224;2024-02-21T07:50:05;5.70;99.90
3256;DHT22;1640;48.504;9.224;2024-02-21T07:52:34;5.80;99.90
3256;DHT22;1640;48.504;9.224;2024-02-21T07:55:02;5.90;99.90
3256;DHT22;1640;48.504;9.224;2024-02-21T07:57:29;6.00;99.90
3256;DHT22;1640;48.504;9.224;2024-02-21T07:59:57;6.20;99.90
3256;DHT22;1640;48.504;9.224;2024-02-21T08:02:24;6.40;99.90
3256;DHT22;1640;48.504;9.224;2024-02-21T08:04:51;6.50;99.90
3256;DHT22;1640;48.504;9.224;2024-02-21T08:07:19;6.70;99.90
3256;DHT22;1640;48.504;9.224;2024-02-21T08:09:48;6.80;1.10
3256;DHT22;1640;48.504;9.224;2024-02-21T08:12:15;6.90;7.40
3256;DHT22;1640;48.504;9.224;2024-02-21T08:14:42;7.10;12.70
3256;DHT22;1640;48.504;9.224;2024-02-21T08:17:10;7.30;16.30
3256;DHT22;1640;48.504;9.224;2024-02-21T08:19:37;7.40;23.20
3256;DHT22;1640;48.504;9.224;2024-02-21T08:22:05;7.50;27.80
3256;DHT22;1640;48.504;9.224;2024-02-21T08:24:33;7.60;30.50
3256;DHT22;1640;48.504;9.224;2024-02-21T08:27:02;7.70;30.40
3256;DHT22;1640;48.504;9.224;2024-02-21T08:29:29;7.60;37.90
3256;DHT22;1640;48.504;9.224;2024-02-21T08:31:57;7.60;41.30
3256;DHT22;1640;48.504;9.224;2024-02-21T08:34:24;7.70;41.30
3256;DHT22;1640;48.504;9.224;2024-02-21T08:36:52;7.70;41.70
3256;DHT22;1640;48.504;9.224;2024-02-21T08:39:19;7.80;43.30
3256;DHT22;1640;48.504;9.224;2024-02-21T08:41:47;7.80;50.50
3256;DHT22;1640;48.504;9.224;2024-02-21T08:44:16;7.70;49.00
3256;DHT22;1640;48.504;9.224;2024-02-21T08:46:43;7.80;46.70
3256;DHT22;1640;48.504;9.224;2024-02-21T08:49:10;7.90;48.70
3256;DHT22;1640;48.504;9.224;2024-02-21T08:51:38;7.80;48.70
3256;DHT22;1640;48.504;9.224;2024-02-21T08:54:05;7.90;48.00
3256;DHT22;1640;48.504;9.224;2024-02-21T08:56:33;8.00;46.80
3256;DHT22;1640;48.504;9.224;2024-02-21T08:59:01;8.10;52.00
3256;DHT22;1640;48.504;9.224;2024-02-21T09:01:31;8.10;51.20
3256;DHT22;1640;48.504;9.224;2024-02-21T09:04:00;8.20;52.70
3256;DHT22;1640;48.504;9.224;2024-02-21T09:06:28;8.20;53.90
3256;DHT22;1640;48.504;9.224;2024-02-21T09:08:58;8.40;53.50
3256;DHT22;1640;48.504;9.224;2024-02-21T09:11:26;8.50;55.20
3256;DHT22;1640;48.504;9.224;2024-02-21T09:13:54;8.60;58.80
3256;DHT22;1640;48.504;9.224;2024-02-21T09:16:22;8.50;57.30
3256;DHT22;1640;48.504;9.224;2024-02-21T09:18:51;8.60;56.50
3256;DHT22;1640;48.504;9.224;2024-02-21T09:21:19;8.60;52.40
3256;DHT22;1640;48.504;9.224;2024-02-21T09:23:46;8.90;54.40
3256;DHT22;1640;48.504;9.224;2024-02-21T09:26:13;9.10;61.30
3256;DHT22;1640;48.504;9.224;2024-02-21T09:28:43;9.00;59.60
3256;DHT22;1640;48.504;9.224;2024-02-21T09:31:11;8.90;59.50
3256;DHT22;1640;48.504;9.224;2024-02-21T09:33:39;9.00;58.40
3256;DHT22;1640;48.504;9.224;2024-02-21T09:36:08;9.10;60.10
3256;DHT22;1640;48.504;9.224;2024-02-21T09:38:35;9.20;59.70
3256;DHT22;1640;48.504;9.224;2024-02-21T09:41:11;9.20;58.80
3256;DHT22;1640;48.504;9.224;2024-02-21T09:43:41;9.20;59.50
3256;DHT22;1640;48.504;9.224;2024-02-21T09:46:16;9.30;58.90
3256;DHT22;1640;48.504;9.224;2024-02-21T09:48:58;9.30;60.90
3256;DHT22;1640;48.504;9.224;2024-02-21T09:51:29;9.30;61.60
3256;DHT22;1640;48.504;9.224;2024-02-21T09:53:58;9.40;64.60
3256;DHT22;1640;48.504;9.224;2024-02-21T09:56:26;9.40;61.40
3256;DHT22;1640;48.504;9.224;2024-02-21T09:58:54;9.50;64.20
3256;DHT22;1640;48.504;9.224;2024-02-21T10:01:22;9.60;64.30
3256;DHT22;1640;48.504;9.224;2024-02-21T10:03:49;9.70;66.00
3256;DHT22;1640;48.504;9.224;2024-02-21T10:06:16;9.80;69.00
3256;DHT22;1640;48.504;9.224;2024-02-21T10:08:51;10.10;72.90
3256;DHT22;1640;48.504;9.224;2024-02-21T10:11:22;10.00;74.50
3256;DHT22;1640;48.504;9.224;2024-02-21T10:13:50;10.00;74.40
3256;DHT22;1640;48.504;9.224;2024-02-21T10:16:17;10.10;75.40
3256;DHT22;1640;48.504;9.224;2024-02-21T10:18:45;10.10;75.50
3256;DHT22;1640;48.504;9.224;2024-02-21T10:21:12;10.20;75.40
3256;DHT22;1640;48.504;9.224;2024-02-21T10:23:45;10.20;75.80
3256;DHT22;1640;48.504;9.224;2024-02-21T10:26:13;10.40;75.80
3256;DHT22;1640;48.504;9.224;2024-02-21T10:28:41;10.60;75.50
3256;DHT22;1640;48.504;9.224;2024-02-21T10:31:11;10.70;75.80
3256;DHT22;1640;48.504;9.224;2024-02-21T10:33:38;10.90;75.90
3256;DHT22;1640;48.504;9.224;2024-02-21T10:36:07;10.90;75.90
3256;DHT22;1640;48.504;9.224;2024-02-21T10:38:36;11.00;75.90
3256;DHT22;1640;48.504;9.224;2024-02-21T10:41:05;11.20;75.80
3256;DHT22;1640;48.504;9.224;2024-02-21T10:43:40;11.40;75.40
3256;DHT22;1640;48.504;9.224;2024-02-21T10:46:08;11.60;75.20
3256;DHT22;1640;48.504;9.224;2024-02-21T10:48:42;11.70;75.10
3256;DHT22;1640;48.504;9.224;2024-02-21T10:51:16;11.80;74.50
3256;DHT22;1640;48.504;9.224;2024-02-21T10:53:47;11.80;74.10
3256;DHT22;1640;48.504;9.224;2024-02-21T10:56:28;11.80;74.40
3256;DHT22;1640;48.504;9.224;2024-02-21T10:58:57;11.90;73.80
3256;DHT22;1640;48.504;9.224;2024-02-21T11:01:26;12.00;73.40
3256;DHT22;1640;48.504;9.224;2024-02-21T11:03:57;12.10;73.50
3256;DHT22;1640;48.504;9.224;2024-02-21T11:06:26;12.30;71.90
3256;DHT22;1640;48.504;9.224;2024-02-21T11:09:02;12.30;72.20
3256;DHT22;1640;48.504;9.224;2024-02-21T11:11:33;12.50;72.20
3256;DHT22;1640;48.504;9.224;2024-02-21T11:14:05;12.70;70.90
3256;DHT22;1640;48.504;9.224;2024-02-21T11:16:36;12.90;72.10
3256;DHT22;1640;48.504;9.224;2024-02-21T11:19:10;13.10;69.00
3256;DHT22;1640;48.504;9.224;2024-02-21T11:21:45;13.10;69.30
3256;DHT22;1640;48.504;9.224;2024-02-21T11:24:14;13.40;67.90
3256;DHT22;1640;48.504;9.224;2024-02-21T11:26:53;13.70;68.20
3256;DHT22;1640;48.504;9.224;2024-02-21T11:29:23;13.70;64.70
3256;DHT22;1640;48.504;9.224;2024-02-21T11:31:51;13.80;63.30
3256;DHT22;1640;48.504;9.224;2024-02-21T11:34:19;13.70;63.30
3256;DHT22;1640;48.504;9.224;2024-02-21T11:36:47;13.70;62.60
3256;DHT22;1640;48.504;9.224;2024-02-21T11:39:21;13.50;61.90
3256;DHT22;1640;48.504;9.224;2024-02-21T11:42:05;13.50;61.30
3256;DHT22;1640;48.504;9.224;2024-02-21T11:44:34;13.50;62.70
3256;DHT22;1640;48.504;9.224;2024-02-21T11:47:04;13.60;63.00
3256;DHT22;1640;48.504;9.224;2024-02-21T11:49:35;13.70;62.30
3256;DHT22;1640;48.504;9.224;2024-02-21T11:52:04;14.00;60.90
3256;DHT22;1640;48.504;9.224;2024-02-21T11:54:31;14.20;60.40
3256;DHT22;1640;48.504;9.224;2024-02-21T11:56:59;14.20;62.60
3256;DHT22;1640;48.504;9.224;2024-02-21T11:59:30;14.50;60.90
3256;DHT22;1640;48.504;9.224;2024-02-21T12:01:58;14.50;59.30
3256;DHT22;1640;48.504;9.224;2024-02-21T12:04:26;14.50;58.20
3256;DHT22;1640;48.504;9.224;2024-02-21T12:06:54;14.60;58.40
3256;DHT22;1640;48.504;9.224;2024-02-21T12:09:23;14.80;58.20
3256;DHT22;1640;48.504;9.224;2024-02-21T12:11:58;14.80;58.00
3256;DHT22;1640;48.504;9.224;2024-02-21T12:14:28;14.90;58.90
3256;DHT22;1640;48.504;9.224;2024-02-21T12:16:56;14.70;58.10
3256;DHT22;1640;48.504;9.224;2024-02-21T12:19:24;14.80;57.80
3256;DHT22;1640;48.504;9.224;2024-02-21T12:21:51;14.70;57.30
3256;DHT22;1640;48.504;9.224;2024-02-21T12:24:22;14.70;58.20
3256;DHT22;1640;48.504;9.224;2024-02-21T12:26:50;14.60;58.80
3256;DHT22;1640;48.504;9.224;2024-02-21T12:29:18;14.60;59.30
3256;DHT22;1640;48.504;9.224;2024-02-21T12:31:47;14.70;60.40
3256;DHT22;1640;48.504;9.224;2024-02-21T12:34:15;15.00;59.60
3256;DHT22;1640;48.504;9.224;2024-02-21T12:36:43;15.10;58.50
3256;DHT22;1640;48.504;9.224;2024-02-21T12:39:11;15.30;59.20
3256;DHT22;1640;48.504;9.224;2024-02-21T12:41:39;15.40;58.20
3256;DHT22;1640;48.504;9.224;2024-02-21T12:44:06;15.30;56.10
3256;DHT22;1640;48.504;9.224;2024-02-21T12:46:34;15.20;56.20
3256;DHT22;1640;48.504;9.224;2024-02-21T12:49:03;15.30;55.80
3256;DHT22;1640;48.504;9.224;2024-02-21T12:51:31;15.30;55.00
3256;DHT22;1640;48.504;9.224;2024-02-21T12:53:59;15.20;55.40
3256;DHT22;1640;48.504;9.224;2024-02-21T12:56:26;15.00;55.50
3256;DHT22;1640;48.504;9.224;2024-02-21T12:58:54;14.90;56.50
3256;DHT22;1640;48.504;9.224;2024-02-21T13:01:21;14.80;56.70
3256;DHT22;1640;48.504;9.224;2024-02-21T13:03:49;14.90;56.60
3256;DHT22;1640;48.504;9.224;2024-02-21T13:06:18;14.80;56.10
3256;DHT22;1640;48.504;9.224;2024-02-21T13:08:45;15.00;56.60
3256;DHT22;1640;48.504;9.224;2024-02-21T13:11:13;15.20;57.00
3256;DHT22;1640;48.504;9.224;2024-02-21T13:13:40;15.40;56.10
3256;DHT22;1640;48.504;9.224;2024-02-21T13:16:08;15.60;55.50
3256;DHT22;1640;48.504;9.224;2024-02-21T13:18:36;15.70;55.60
3256;DHT22;1640;48.504;9.224;2024-02-21T13:21:04;15.70;54.80
3256;DHT22;1640;48.504;9.224;2024-02-21T13:23:33;15.30;56.10
3256;DHT22;1640;48.504;9.224;2024-02-21T13:26:00;15.30;54.40
3256;DHT22;1640;48.504;9.224;2024-02-21T13:28:28;15.40;55.80
3256;DHT22;1640;48.504;9.224;2024-02-21T13:30:55;15.30;56.70
3256;DHT22;1640;48.504;9.224;2024-02-21T13:33:23;15.10;56.10
3256;DHT22;1640;48.504;9.224;2024-02-21T13:35:50;15.10;57.10
3256;DHT22;1640;48.504;9.224;2024-02-21T13:38:18;15.20;56.60
3256;DHT22;1640;48.504;9.224;2024-02-21T13:40:47;15.40;57.00
3256;DHT22;1640;48.504;9.224;2024-02-21T13:43:15;15.50;55.00
3256;DHT22;1640;48.504;9.224;2024-02-21T13:45:56;15.70;54.40
3256;DHT22;1640;48.504;9.224;2024-02-21T13:48:23;15.70;54.70
3256;DHT22;1640;48.504;9.224;2024-02-21T13:50:51;16.00;54.00
3256;DHT22;1640;48.504;9.224;2024-02-21T13:53:19;16.00;52.90
3256;DHT22;1640;48.504;9.224;2024-02-21T13:55:49;16.10;53.30
3256;DHT22;1640;48.504;9.224;2024-02-21T13:58:16;15.90;53.10
3256;DHT22;1640;48.504;9.224;2024-02-21T14:00:44;15.70;54.60
3256;DHT22;1640;48.504;9.224;2024-02-21T14:03:12;15.50;54.80
3256;DHT22;1640;48.504;9.224;2024-02-21T14:05:39;15.10;55.20
3256;DHT22;1640;48.504;9.224;2024-02-21T14:08:07;14.90;56.90
3256;DHT22;1640;48.504;9.224;2024-02-21T14:10:34;15.00;55.50
3256;DHT22;1640;48.504;9.224;2024-02-21T14:13:04;15.20;58.10
3256;DHT22;1640;48.504;9.224;2024-02-21T14:15:32;15.20;55.80
3256;DHT22;1640;48.504;9.224;2024-02-21T14:17:59;15.10;55.40
3256;DHT22;1640;48.504;9.224;2024-02-21T14:20:26;14.90;56.20
3256;DHT22;1640;48.504;9.224;2024-02-21T14:22:54;14.70;58.10
3256;DHT22;1640;48.504;9.224;2024-02-21T14:25:21;14.60;56.30
3256;DHT22;1640;48.504;9.224;2024-02-21T14:27:49;14.60;58.10
3256;DHT22;1640;48.504;9.224;2024-02-21T14:30:18;14.70;58.50
3256;DHT22;1640;48.504;9.224;2024-02-21T14:32:45;15.00;57.40
3256;DHT22;1640;48.504;9.224;2024-02-21T14:35:13;15.10;55.50
3256;DHT22;1640;48.504;9.224;2024-02-21T14:37:41;15.30;54.60
3256;DHT22;1640;48.504;9.224;2024-02-21T14:40:09;15.30;55.40
3256;DHT22;1640;48.504;9.224;2024-02-21T14:42:37;15.50;56.10
3256;DHT22;1640;48.504;9.224;2024-02-21T14:45:05;15.70;56.10
3256;DHT22;1640;48.504;9.224;2024-02-21T14:47:34;15.80;54.40
3256;DHT22;1640;48.504;9.224;2024-02-21T14:50:03;15.80;54.30
3256;DHT22;1640;48.504;9.224;2024-02-21T14:52:31;15.60;54.70
3256;DHT22;1640;48.504;9.224;2024-02-21T14:54:59;15.30;55.80
3256;DHT22;1640;48.504;9.224;2024-02-21T14:57:29;15.20;56.50
3256;DHT22;1640;48.504;9.224;2024-02-21T14:59:56;15.20;56.10
3256;DHT22;1640;48.504;9.224;2024-02-21T15:02:24;15.10;56.50
3256;DHT22;1640;48.504;9.224;2024-02-21T15:04:55;15.10;57.10
3256;DHT22;1640;48.504;9.224;2024-02-21T15:07:22;15.00;57.00
3256;DHT22;1640;48.504;9.224;2024-02-21T15:09:51;15.00;57.40
3256;DHT22;1640;48.504;9.224;2024-02-21T15:12:18;14.90;59.00
3256;DHT22;1640;48.504;9.224;2024-02-21T15:14:46;14.70;60.30
3256;DHT22;1640;48.504;9.224;2024-02-21T15:17:13;14.60;61.00
3256;DHT22;1640;48.504;9.224;2024-02-21T15:19:41;14.40;60.90
3256;DHT22;1640;48.504;9.224;2024-02-21T15:22:11;14.30;61.10
3256;DHT22;1640;48.504;9.224;2024-02-21T15:24:38;14.10;61.60
3256;DHT22;1640;48.504;9.224;2024-02-21T15:27:06;14.00;62.00
3256;DHT22;1640;48.504;9.224;2024-02-21T15:29:34;13.90;63.30
3256;DHT22;1640;48.504;9.224;2024-02-21T15:32:03;13.80;63.70
3256;DHT22;1640;48.504;9.224;2024-02-21T15:34:31;13.70;64.50
3256;DHT22;1640;48.504;9.224;2024-02-21T15:36:58;13.60;64.60
3256;DHT22;1640;48.504;9.224;2024-02-21T15:39:27;13.60;66.50
3256;DHT22;1640;48.504;9.224;2024-02-21T15:41:55;13.60;66.70
3256;DHT22;1640;48.504;9.224;2024-02-21T15:44:23;13.60;66.30
3256;DHT22;1640;48.504;9.224;2024-02-21T15:46:50;13.60;65.50
3256;DHT22;1640;48.504;9.224;2024-02-21T15:49:18;13.70;65.30
3256;DHT22;1640;48.504;9.224;2024-02-21T15:51:46;13.60;65.20
3256;DHT22;1640;48.504;9.224;2024-02-21T15:54:13;13.70;65.00
3256;DHT22;1640;48.504;9.224;2024-02-21T15:56:44;13.60;65.20
3256;DHT22;1640;48.504;9.224;2024-02-21T15:59:12;13.60;67.90
3256;DHT22;1640;48.504;9.224;2024-02-21T16:01:39;13.60;67.90
3256;DHT22;1640;48.504;9.224;2024-02-21T16:04:09;13.50;68.30
3256;DHT22;1640;48.504;9.224;2024-02-21T16:06:37;13.50;69.30
3256;DHT22;1640;48.504;9.224;2024-02-21T16:09:04;13.40;69.30
3256;DHT22;1640;48.504;9.224;2024-02-21T16:11:33;13.40;69.80
3256;DHT22;1640;48.504;9.224;2024-02-21T16:14:02;13.20;70.50
3256;DHT22;1640;48.504;9.224;2024-02-21T16:16:29;13.20;70.80
3256;DHT22;1640;48.504;9.224;2024-02-21T16:18:57;13.20;72.10